sensor_id;sensor_type;location;lat;lon;timestamp;temperature;humidity
42841;DHT22;28491;46.898;7.660;2024-01-25T00:01:11;10.60;92.40
42841;DHT22;28491;46.898;7.660;2024-01-25T00:03:36;10.70;89.90
42841;DHT22;28491;46.898;7.660;2024-01-25T00:06:03;10.80;80.90
42841;DHT22;28491;46.898;7.660;2024-01-25T00:08:29;10.90;81.10
42841;DHT22;28491;46.898;7.660;2024-01-25T00:10:54;10.80;84.00
42841;DHT22;28491;46.898;7.660;2024-01-25T00:13:20;10.70;89.30
42841;DHT22;28491;46.898;7.660;2024-01-25T00:15:45;10.70;91.20
42841;DHT22;28491;46.898;7.660;2024-01-25T00:18:11;10.60;93.40
42841;DHT22;28491;46.898;7.660;2024-01-25T00:20:36;10.60;92.10
42841;DHT22;28491;46.898;7.660;2024-01-25T00:23:02;10.70;91.10
42841;DHT22;28491;46.898;7.660;2024-01-25T00:25:28;10.70;88.80
42841;DHT22;28491;46.898;7.660;2024-01-25T00:27:53;10.60;91.60
42841;DHT22;28491;46.898;7.660;2024-01-25T00:30:19;10.60;91.30
42841;DHT22;28491;46.898;7.660;2024-01-25T00:32:44;10.70;79.60
42841;DHT22;28491;46.898;7.660;2024-01-25T00:35:10;10.70;85.80
42841;DHT22;28491;46.898;7.660;2024-01-25T00:37:39;10.60;89.50
42841;DHT22;28491;46.898;7.660;2024-01-25T00:40:05;10.60;90.80
42841;DHT22;28491;46.898;7.660;2024-01-25T00:42:32;10.60;92.00
42841;DHT22;28491;46.898;7.660;2024-01-25T00:45:00;10.50;92.10
42841;DHT22;28491;46.898;7.660;2024-01-25T00:47:26;10.50;93.10
42841;DHT22;28491;46.898;7.660;2024-01-25T00:49:52;10.50;94.00
42841;DHT22;28491;46.898;7.660;2024-01-25T00:52:17;10.40;95.70
42841;DHT22;28491;46.898;7.660;2024-01-25T00:54:43;10.40;97.20
42841;DHT22;28491;46.898;7.660;2024-01-25T00:57:09;10.50;93.40
42841;DHT22;28491;46.898;7.660;2024-01-25T00:59:35;10.50;94.00
42841;DHT22;28491;46.898;7.660;2024-01-25T01:02:04;10.50;92.50
42841;DHT22;28491;46.898;7.660;2024-01-25T01:04:30;10.50;92.90
42841;DHT22;28491;46.898;7.660;2024-01-25T01:06:56;10.60;92.60
42841;DHT22;28491;46.898;7.660;2024-01-25T01:09:22;10.50;94.40
42841;DHT22;28491;46.898;7.660;2024-01-25T01:11:47;10.50;94.90
42841;DHT22;28491;46.898;7.660;2024-01-25T01:14:13;10.50;96.00
42841;DHT22;28491;46.898;7.660;2024-01-25T01:16:39;10.50;94.50
42841;DHT22;28491;46.898;7.660;2024-01-25T01:19:04;10.50;92.70
42841;DHT22;28491;46.898;7.660;2024-01-25T01:21:33;10.60;90.00
42841;DHT22;28491;46.898;7.660;2024-01-25T01:23:59;10.70;78.80
42841;DHT22;28491;46.898;7.660;2024-01-25T01:26:24;10.60;81.00
42841;DHT22;28491;46.898;7.660;2024-01-25T01:28:50;10.70;78.30
42841;DHT22;28491;46.898;7.660;2024-01-25T01:31:15;10.60;86.40
42841;DHT22;28491;46.898;7.660;2024-01-25T01:33:41;10.50;92.10
42841;DHT22;28491;46.898;7.660;2024-01-25T01:36:07;10.40;94.80
42841;DHT22;28491;46.898;7.660;2024-01-25T01:38:32;10.40;95.90
42841;DHT22;28491;46.898;7.660;2024-01-25T01:40:58;10.40;96.60
42841;DHT22;28491;46.898;7.660;2024-01-25T01:43:23;10.40;94.50
42841;DHT22;28491;46.898;7.660;2024-01-25T01:45:49;10.50;93.00
42841;DHT22;28491;46.898;7.660;2024-01-25T01:48:16;10.40;96.50
42841;DHT22;28491;46.898;7.660;2024-01-25T01:50:43;10.50;94.40
42841;DHT22;28491;46.898;7.660;2024-01-25T01:53:10;10.40;94.50
42841;DHT22;28491;46.898;7.660;2024-01-25T01:55:36;10.50;97.60
42841;DHT22;28491;46.898;7.660;2024-01-25T01:58:02;10.60;99.90
42841;DHT22;28491;46.898;7.660;2024-01-25T02:00:30;10.50;99.90
42841;DHT22;28491;46.898;7.660;2024-01-25T02:02:56;10.40;1.00
42841;DHT22;28491;46.898;7.660;2024-01-25T02:05:23;10.40;1.00
42841;DHT22;28491;46.898;7.660;2024-01-25T02:07:52;10.30;1.00
42841;DHT22;28491;46.898;7.660;2024-01-25T02:10:45;10.40;1.00
42841;DHT22;28491;46.898;7.660;2024-01-25T02:13:16;10.30;1.00
42841;DHT22;28491;46.898;7.660;2024-01-25T02:15:41;10.30;1.00
42841;DHT22;28491;46.898;7.660;2024-01-25T02:18:07;10.30;1.00
42841;DHT22;28491;46.898;7.660;2024-01-25T02:20:33;10.30;1.00
42841;DHT22;28491;46.898;7.660;2024-01-25T02:22:58;10.20;1.00
42841;DHT22;28491;46.898;7.660;2024-01-25T02:25:24;10.10;1.00
42841;DHT22;28491;46.898;7.660;2024-01-25T02:27:49;10.10;1.00
42841;DHT22;28491;46.898;7.660;2024-01-25T02:30:15;10.10;1.00
42841;DHT22;28491;46.898;7.660;2024-01-25T02:32:43;10.20;1.00
42841;DHT22;28491;46.898;7.660;2024-01-25T02:35:09;10.20;1.00
42841;DHT22;28491;46.898;7.660;2024-01-25T02:37:34;10.20;1.00
42841;DHT22;28491;46.898;7.660;2024-01-25T02:40:00;10.30;1.00
42841;DHT22;28491;46.898;7.660;2024-01-25T02:42:25;10.20;1.00
42841;DHT22;28491;46.898;7.660;2024-01-25T02:44:51;10.20;1.00
42841;DHT22;28491;46.898;7.660;2024-01-25T02:47:16;10.20;1.00
42841;DHT22;28491;46.898;7.660;2024-01-25T02:49:42;10.10;1.00
42841;DHT22;28491;46.898;7.660;2024-01-25T02:52:08;10.00;1.00
42841;DHT22;28491;46.898;7.660;2024-01-25T02:54:37;10.00;1.00
42841;DHT22;28491;46.898;7.660;2024-01-25T02:57:03;9.90;1.00
42841;DHT22;28491;46.898;7.660;2024-01-25T02:59:28;9.80;1.00
42841;DHT22;28491;46.898;7.660;2024-01-25T03:01:54;9.80;1.00
42841;DHT22;28491;46.898;7.660;2024-01-25T03:04:20;9.70;1.00
42841;DHT22;28491;46.898;7.660;2024-01-25T03:06:45;9.70;1.00
42841;DHT22;28491;46.898;7.660;2024-01-25T03:09:11;9.70;1.00
42841;DHT22;28491;46.898;7.660;2024-01-25T03:11:37;9.60;1.00
42841;DHT22;28491;46.898;7.660;2024-01-25T03:14:02;9.60;1.00
42841;DHT22;28491;46.898;7.660;2024-01-25T03:16:28;9.60;1.00
42841;DHT22;28491;46.898;7.660;2024-01-25T03:18:53;9.60;1.00
42841;DHT22;28491;46.898;7.660;2024-01-25T03:21:19;9.60;1.00
42841;DHT22;28491;46.898;7.660;2024-01-25T03:23:44;9.60;1.00
42841;DHT22;28491;46.898;7.660;2024-01-25T03:26:10;9.60;1.00
42841;DHT22;28491;46.898;7.660;2024-01-25T03:28:35;9.70;1.00
42841;DHT22;28491;46.898;7.660;2024-01-25T03:31:02;9.60;1.00
42841;DHT22;28491;46.898;7.660;2024-01-25T03:33:28;9.60;1.00
42841;DHT22;28491;46.898;7.660;2024-01-25T03:35:54;9.60;1.00
42841;DHT22;28491;46.898;7.660;2024-01-25T03:38:20;9.60;1.00
42841;DHT22;28491;46.898;7.660;2024-01-25T03:40:45;9.60;1.00
42841;DHT22;28491;46.898;7.660;2024-01-25T03:43:11;9.60;1.00
42841;DHT22;28491;46.898;7.660;2024-01-25T03:45:37;9.60;1.00
42841;DHT22;28491;46.898;7.660;2024-01-25T03:48:03;9.60;1.00
42841;DHT22;28491;46.898;7.660;2024-01-25T03:50:28;9.50;1.00
42841;DHT22;28491;46.898;7.660;2024-01-25T03:52:54;9.50;1.00
42841;DHT22;28491;46.898;7.660;2024-01-25T03:55:20;9.50;1.00
42841;DHT22;28491;46.898;7.660;2024-01-25T03:57:45;9.40;1.00
42841;DHT22;28491;46.898;7.660;2024-01-25T04:00:11;9.40;1.60
42841;DHT22;28491;46.898;7.660;2024-01-25T04:02:37;9.40;1.50
42841;DHT22;28491;46.898;7.660;2024-01-25T04:05:04;9.40;11.40
42841;DHT22;28491;46.898;7.660;2024-01-25T04:07:30;9.30;24.70
42841;DHT22;28491;46.898;7.660;2024-01-25T04:09:56;9.30;22.70
42841;DHT22;28491;46.898;7.660;2024-01-25T04:12:21;9.30;25.20
42841;DHT22;28491;46.898;7.660;2024-01-25T04:14:47;9.30;49.20
42841;DHT22;28491;46.898;7.660;2024-01-25T04:17:12;9.30;49.90
42841;DHT22;28491;46.898;7.660;2024-01-25T04:19:38;9.30;42.50
42841;DHT22;28491;46.898;7.660;2024-01-25T04:22:03;9.30;37.20
42841;DHT22;28491;46.898;7.660;2024-01-25T04:24:29;9.30;32.50
42841;DHT22;28491;46.898;7.660;2024-01-25T04:26:54;9.20;30.80
42841;DHT22;28491;46.898;7.660;2024-01-25T04:29:20;9.30;43.10
42841;DHT22;28491;46.898;7.660;2024-01-25T04:31:46;9.20;35.90
42841;DHT22;28491;46.898;7.660;2024-01-25T04:34:15;9.20;35.00
42841;DHT22;28491;46.898;7.660;2024-01-25T04:36:41;9.20;46.60
42841;DHT22;28491;46.898;7.660;2024-01-25T04:39:06;9.10;43.00
42841;DHT22;28491;46.898;7.660;2024-01-25T04:41:32;9.20;62.20
42841;DHT22;28491;46.898;7.660;2024-01-25T04:43:58;9.20;60.80
42841;DHT22;28491;46.898;7.660;2024-01-25T04:46:23;9.20;60.00
42841;DHT22;28491;46.898;7.660;2024-01-25T04:48:49;9.20;56.50
42841;DHT22;28491;46.898;7.660;2024-01-25T04:51:18;9.20;56.40
42841;DHT22;28491;46.898;7.660;2024-01-25T04:53:43;9.10;55.90
42841;DHT22;28491;46.898;7.660;2024-01-25T04:56:09;9.10;59.80
42841;DHT22;28491;46.898;7.660;2024-01-25T04:58:35;9.10;60.50
42841;DHT22;28491;46.898;7.660;2024-01-25T05:01:03;9.10;60.10
42841;DHT22;28491;46.898;7.660;2024-01-25T05:03:29;9.10;60.10
42841;DHT22;28491;46.898;7.660;2024-01-25T05:05:56;9.20;57.20
42841;DHT22;28491;46.898;7.660;2024-01-25T05:08:24;9.20;55.80
42841;DHT22;28491;46.898;7.660;2024-01-25T05:10:50;9.20;38.60
42841;DHT22;28491;46.898;7.660;2024-01-25T05:13:15;9.20;41.00
42841;DHT22;28491;46.898;7.660;2024-01-25T05:15:41;9.20;30.90
42841;DHT22;28491;46.898;7.660;2024-01-25T05:18:07;9.30;29.30
42841;DHT22;28491;46.898;7.660;2024-01-25T05:20:32;9.30;17.90
42841;DHT22;28491;46.898;7.660;2024-01-25T05:23:00;9.30;15.20
42841;DHT22;28491;46.898;7.660;2024-01-25T05:25:25;9.40;8.10
42841;DHT22;28491;46.898;7.660;2024-01-25T05:27:54;9.30;1.20
42841;DHT22;28491;46.898;7.660;2024-01-25T05:30:26;9.30;6.00
42841;DHT22;28491;46.898;7.660;2024-01-25T05:32:52;9.40;2.40
42841;DHT22;28491;46.898;7.660;2024-01-25T05:35:19;9.40;1.00
42841;DHT22;28491;46.898;7.660;2024-01-25T05:37:45;9.40;1.00
42841;DHT22;28491;46.898;7.660;2024-01-25T05:40:11;9.30;1.00
42841;DHT22;28491;46.898;7.660;2024-01-25T05:42:37;9.30;1.00
42841;DHT22;28491;46.898;7.660;2024-01-25T05:45:03;9.30;1.50
42841;DHT22;28491;46.898;7.660;2024-01-25T05:47:29;9.40;1.00
42841;DHT22;28491;46.898;7.660;2024-01-25T05:49:55;9.30;1.00
42841;DHT22;28491;46.898;7.660;2024-01-25T05:52:22;9.30;1.00
42841;DHT22;28491;46.898;7.660;2024-01-25T05:54:48;9.30;1.00
42841;DHT22;28491;46.898;7.660;2024-01-25T05:57:14;9.30;1.50
42841;DHT22;28491;46.898;7.660;2024-01-25T05:59:40;9.30;7.20
42841;DHT22;28491;46.898;7.660;2024-01-25T06:02:05;9.30;4.60
42841;DHT22;28491;46.898;7.660;2024-01-25T06:04:31;9.30;5.30
42841;DHT22;28491;46.898;7.660;2024-01-25T06:06:57;9.30;3.20
42841;DHT22;28491;46.898;7.660;2024-01-25T06:09:23;9.30;2.20
42841;DHT22;28491;46.898;7.660;2024-01-25T06:11:50;9.30;1.80
42841;DHT22;28491;46.898;7.660;2024-01-25T06:14:16;9.20;3.60
42841;DHT22;28491;46.898;7.660;2024-01-25T06:16:41;9.20;12.40
42841;DHT22;28491;46.898;7.660;2024-01-25T06:19:07;9.10;20.10
42841;DHT22;28491;46.898;7.660;2024-01-25T06:21:33;9.10;20.40
42841;DHT22;28491;46.898;7.660;2024-01-25T06:24:06;9.20;21.60
42841;DHT22;28491;46.898;7.660;2024-01-25T06:26:32;9.10;18.00
42841;DHT22;28491;46.898;7.660;2024-01-25T06:28:58;9.10;18.90
42841;DHT22;28491;46.898;7.660;2024-01-25T06:31:26;9.10;21.40
42841;DHT22;28491;46.898;7.660;2024-01-25T06:33:52;9.10;23.40
42841;DHT22;28491;46.898;7.660;2024-01-25T06:36:20;9.10;28.30
42841;DHT22;28491;46.898;7.660;2024-01-25T06:38:46;9.20;23.90
42841;DHT22;28491;46.898;7.660;2024-01-25T06:41:12;9.20;13.60
42841;DHT22;28491;46.898;7.660;2024-01-25T06:43:37;9.20;7.30
42841;DHT22;28491;46.898;7.660;2024-01-25T06:46:03;9.20;8.20
42841;DHT22;28491;46.898;7.660;2024-01-25T06:48:28;9.20;10.10
42841;DHT22;28491;46.898;7.660;2024-01-25T06:50:54;9.20;6.50
42841;DHT22;28491;46.898;7.660;2024-01-25T06:53:21;9.10;6.10
42841;DHT22;28491;46.898;7.660;2024-01-25T06:55:47;9.10;13.60
42841;DHT22;28491;46.898;7.660;2024-01-25T06:58:12;9.10;16.00
42841;DHT22;28491;46.898;7.660;2024-01-25T07:00:38;9.10;19.90
42841;DHT22;28491;46.898;7.660;2024-01-25T07:03:05;9.10;17.40
42841;DHT22;28491;46.898;7.660;2024-01-25T07:05:30;9.00;13.40
42841;DHT22;28491;46.898;7.660;2024-01-25T07:07:58;9.00;15.60
42841;DHT22;28491;46.898;7.660;2024-01-25T07:10:24;9.00;19.60
42841;DHT22;28491;46.898;7.660;2024-01-25T07:12:50;9.00;27.40
42841;DHT22;28491;46.898;7.660;2024-01-25T07:15:16;9.00;31.20
42841;DHT22;28491;46.898;7.660;2024-01-25T07:17:42;9.00;32.40
42841;DHT22;28491;46.898;7.660;2024-01-25T07:20:08;9.00;35.80
42841;DHT22;28491;46.898;7.660;2024-01-25T07:22:34;9.00;37.80
42841;DHT22;28491;46.898;7.660;2024-01-25T07:25:00;9.00;41.10
42841;DHT22;28491;46.898;7.660;2024-01-25T07:27:25;9.00;39.70
42841;DHT22;28491;46.898;7.660;2024-01-25T07:29:51;9.00;35.90
42841;DHT22;28491;46.898;7.660;2024-01-25T07:32:17;9.00;31.90
42841;DHT22;28491;46.898;7.660;2024-01-25T07:34:43;9.00;37.80
42841;DHT22;28491;46.898;7.660;2024-01-25T07:37:09;8.90;38.60
42841;DHT22;28491;46.898;7.660;2024-01-25T07:39:36;8.90;36.00
42841;DHT22;28491;46.898;7.660;2024-01-25T07:42:02;8.90;37.30
42841;DHT22;28491;46.898;7.660;2024-01-25T07:44:27;8.90;35.70
42841;DHT22;28491;46.898;7.660;2024-01-25T07:46:53;8.90;36.70
42841;DHT22;28491;46.898;7.660;2024-01-25T07:49:19;8.90;42.10
42841;DHT22;28491;46.898;7.660;2024-01-25T07:51:44;8.90;42.80
42841;DHT22;28491;46.898;7.660;2024-01-25T07:54:10;8.90;52.30
42841;DHT22;28491;46.898;7.660;2024-01-25T07:56:35;8.80;47.70
42841;DHT22;28491;46.898;7.660;2024-01-25T07:59:01;8.80;44.90
42841;DHT22;28491;46.898;7.660;2024-01-25T08:01:27;8.90;55.40
42841;DHT22;28491;46.898;7.660;2024-01-25T08:03:52;8.90;55.80
42841;DHT22;28491;46.898;7.660;2024-01-25T08:06:18;9.00;56.10
42841;DHT22;28491;46.898;7.660;2024-01-25T08:08:43;9.00;55.10
42841;DHT22;28491;46.898;7.660;2024-01-25T08:11:09;9.00;53.10
42841;DHT22;28491;46.898;7.660;2024-01-25T08:13:34;9.00;57.90
42841;DHT22;28491;46.898;7.660;2024-01-25T08:16:00;9.00;52.40
42841;DHT22;28491;46.898;7.660;2024-01-25T08:18:25;9.00;49.40
42841;DHT22;28491;46.898;7.660;2024-01-25T08:20:54;9.00;43.50
42841;DHT22;28491;46.898;7.660;2024-01-25T08:23:20;9.00;49.40
42841;DHT22;28491;46.898;7.660;2024-01-25T08:25:46;9.00;46.90
42841;DHT22;28491;46.898;7.660;2024-01-25T08:28:11;9.00;46.10
42841;DHT22;28491;46.898;7.660;2024-01-25T08:30:37;9.00;43.80
42841;DHT22;28491;46.898;7.660;2024-01-25T08:33:02;9.10;42.90
42841;DHT22;28491;46.898;7.660;2024-01-25T08:35:29;9.10;39.80
42841;DHT22;28491;46.898;7.660;2024-01-25T08:37:56;9.00;41.80
42841;DHT22;28491;46.898;7.660;2024-01-25T08:40:21;9.00;39.10
42841;DHT22;28491;46.898;7.660;2024-01-25T08:42:47;9.00;44.40
42841;DHT22;28491;46.898;7.660;2024-01-25T08:45:12;9.00;52.10
42841;DHT22;28491;46.898;7.660;2024-01-25T08:47:39;9.10;58.00
42841;DHT22;28491;46.898;7.660;2024-01-25T08:50:05;9.10;50.10
42841;DHT22;28491;46.898;7.660;2024-01-25T08:52:36;9.20;52.20
42841;DHT22;28491;46.898;7.660;2024-01-25T08:55:03;9.30;47.10
42841;DHT22;28491;46.898;7.660;2024-01-25T08:57:30;9.30;31.80
42841;DHT22;28491;46.898;7.660;2024-01-25T08:59:55;9.30;26.00
42841;DHT22;28491;46.898;7.660;2024-01-25T09:02:24;9.40;30.90
42841;DHT22;28491;46.898;7.660;2024-01-25T09:04:52;9.30;22.10
42841;DHT22;28491;46.898;7.660;2024-01-25T09:07:19;9.50;15.60
42841;DHT22;28491;46.898;7.660;2024-01-25T09:09:44;9.40;12.20
42841;DHT22;28491;46.898;7.660;2024-01-25T09:12:10;9.50;14.80
42841;DHT22;28491;46.898;7.660;2024-01-25T09:14:37;9.50;9.40
42841;DHT22;28491;46.898;7.660;2024-01-25T09:17:02;9.60;7.40
42841;DHT22;28491;46.898;7.660;2024-01-25T09:19:28;9.60;1.00
42841;DHT22;28491;46.898;7.660;2024-01-25T09:21:53;9.60;1.00
42841;DHT22;28491;46.898;7.660;2024-01-25T09:24:19;9.60;1.00
42841;DHT22;28491;46.898;7.660;2024-01-25T09:26:44;9.70;1.00
42841;DHT22;28491;46.898;7.660;2024-01-25T09:29:10;9.70;1.00
42841;DHT22;28491;46.898;7.660;2024-01-25T09:31:35;9.70;1.00
42841;DHT22;28491;46.898;7.660;2024-01-25T09:34:01;9.70;1.00
42841;DHT22;28491;46.898;7.660;2024-01-25T09:36:26;9.80;1.00
42841;DHT22;28491;46.898;7.660;2024-01-25T09:38:52;9.80;1.00
42841;DHT22;28491;46.898;7.660;2024-01-25T09:41:18;9.80;1.00
42841;DHT22;28491;46.898;7.660;2024-01-25T09:43:43;9.80;1.00
42841;DHT22;28491;46.898;7.660;2024-01-25T09:46:13;9.70;1.00
42841;DHT22;28491;46.898;7.660;2024-01-25T09:48:39;9.70;1.00
42841;DHT22;28491;46.898;7.660;2024-01-25T09:51:05;9.80;1.00
42841;DHT22;28491;46.898;7.660;2024-01-25T09:53:32;9.80;1.00
42841;DHT22;28491;46.898;7.660;2024-01-25T09:58:35;9.80;1.00
42841;DHT22;28491;46.898;7.660;2024-01-25T10:01:01;9.80;1.00
42841;DHT22;28491;46.898;7.660;2024-01-25T10:03:27;9.90;1.00
42841;DHT22;28491;46.898;7.660;2024-01-25T10:05:52;10.00;1.00
42841;DHT22;28491;46.898;7.660;2024-01-25T10:08:18;10.00;1.00
42841;DHT22;28491;46.898;7.660;2024-01-25T10:10:46;10.10;1.00
42841;DHT22;28491;46.898;7.660;2024-01-25T10:13:12;10.20;1.00
42841;DHT22;28491;46.898;7.660;2024-01-25T10:15:39;10.20;1.00
42841;DHT22;28491;46.898;7.660;2024-01-25T10:18:07;10.10;1.00
42841;DHT22;28491;46.898;7.660;2024-01-25T10:20:38;10.10;1.00
42841;DHT22;28491;46.898;7.660;2024-01-25T10:23:04;10.10;1.00
42841;DHT22;28491;46.898;7.660;2024-01-25T10:25:30;10.10;1.00
42841;DHT22;28491;46.898;7.660;2024-01-25T10:27:58;10.30;1.00
42841;DHT22;28491;46.898;7.660;2024-01-25T10:30:24;10.20;1.00
42841;DHT22;28491;46.898;7.660;2024-01-25T10:32:50;10.20;1.00
42841;DHT22;28491;46.898;7.660;2024-01-25T10:35:18;10.10;1.00
42841;DHT22;28491;46.898;7.660;2024-01-25T10:37:44;10.10;1.00
42841;DHT22;28491;46.898;7.660;2024-01-25T10:40:11;10.10;1.00
42841;DHT22;28491;46.898;7.660;2024-01-25T10:42:36;10.10;1.00
42841;DHT22;28491;46.898;7.660;2024-01-25T10:45:02;10.10;1.00
42841;DHT22;28491;46.898;7.660;2024-01-25T10:47:28;10.10;1.00
42841;DHT22;28491;46.898;7.660;2024-01-25T10:50:00;10.20;1.00
42841;DHT22;28491;46.898;7.660;2024-01-25T10:52:35;10.20;1.00
42841;DHT22;28491;46.898;7.660;2024-01-25T10:55:02;10.30;1.00
42841;DHT22;28491;46.898;7.660;2024-01-25T10:57:42;10.60;93.20
42841;DHT22;28491;46.898;7.660;2024-01-25T11:00:10;10.60;89.50
42841;DHT22;28491;46.898;7.660;2024-01-25T11:02:37;10.70;67.00
42841;DHT22;28491;46.898;7.660;2024-01-25T11:05:07;10.60;90.60
42841;DHT22;28491;46.898;7.660;2024-01-25T11:07:48;10.50;88.70
42841;DHT22;28491;46.898;7.660;2024-01-25T11:12:50;10.30;98.00
42841;DHT22;28491;46.898;7.660;2024-01-25T11:15:35;10.30;99.40
42841;DHT22;28491;46.898;7.660;2024-01-25T11:18:03;10.40;96.50
42841;DHT22;28491;46.898;7.660;2024-01-25T11:20:30;10.40;99.60
42841;DHT22;28491;46.898;7.660;2024-01-25T11:22:58;10.40;99.30
42841;DHT22;28491;46.898;7.660;2024-01-25T11:25:27;10.50;98.50
42841;DHT22;28491;46.898;7.660;2024-01-25T11:27:54;10.50;99.00
42841;DHT22;28491;46.898;7.660;2024-01-25T11:30:20;10.40;99.70
42841;DHT22;28491;46.898;7.660;2024-01-25T11:32:47;10.40;92.60
42841;DHT22;28491;46.898;7.660;2024-01-25T11:35:13;10.50;91.70
42841;DHT22;28491;46.898;7.660;2024-01-25T11:37:42;10.50;94.90
42841;DHT22;28491;46.898;7.660;2024-01-25T11:40:09;10.50;96.00
42841;DHT22;28491;46.898;7.660;2024-01-25T11:42:35;10.60;92.00
42841;DHT22;28491;46.898;7.660;2024-01-25T11:45:00;10.60;91.10
42841;DHT22;28491;46.898;7.660;2024-01-25T11:47:26;10.60;91.10
42841;DHT22;28491;46.898;7.660;2024-01-25T11:49:51;10.60;94.40
42841;DHT22;28491;46.898;7.660;2024-01-25T11:52:17;10.60;94.80
42841;DHT22;28491;46.898;7.660;2024-01-25T11:54:42;10.60;98.40
42841;DHT22;28491;46.898;7.660;2024-01-25T11:57:08;10.70;86.90
42841;DHT22;28491;46.898;7.660;2024-01-25T11:59:35;10.90;79.60
42841;DHT22;28491;46.898;7.660;2024-01-25T12:02:01;10.80;88.40
42841;DHT22;28491;46.898;7.660;2024-01-25T12:04:26;10.80;88.90
42841;DHT22;28491;46.898;7.660;2024-01-25T12:06:53;10.80;94.10
42841;DHT22;28491;46.898;7.660;2024-01-25T12:09:18;10.80;85.60
42841;DHT22;28491;46.898;7.660;2024-01-25T12:11:44;10.80;83.00
42841;DHT22;28491;46.898;7.660;2024-01-25T12:14:16;10.70;88.30
42841;DHT22;28491;46.898;7.660;2024-01-25T12:16:42;10.60;90.00
42841;DHT22;28491;46.898;7.660;2024-01-25T12:19:08;10.60;82.20
42841;DHT22;28491;46.898;7.660;2024-01-25T12:21:34;10.50;91.60
42841;DHT22;28491;46.898;7.660;2024-01-25T12:24:00;10.60;90.30
42841;DHT22;28491;46.898;7.660;2024-01-25T12:26:25;10.60;92.90
42841;DHT22;28491;46.898;7.660;2024-01-25T12:28:51;10.50;93.10
42841;DHT22;28491;46.898;7.660;2024-01-25T12:31:16;10.50;93.10
42841;DHT22;28491;46.898;7.660;2024-01-25T12:33:43;10.60;93.50
42841;DHT22;28491;46.898;7.660;2024-01-25T12:36:09;10.60;96.20
42841;DHT22;28491;46.898;7.660;2024-01-25T12:38:34;10.60;97.70
42841;DHT22;28491;46.898;7.660;2024-01-25T12:41:01;10.50;97.90
42841;DHT22;28491;46.898;7.660;2024-01-25T12:43:26;10.60;97.30
42841;DHT22;28491;46.898;7.660;2024-01-25T12:45:52;10.40;96.60
42841;DHT22;28491;46.898;7.660;2024-01-25T12:48:18;10.40;99.40
42841;DHT22;28491;46.898;7.660;2024-01-25T12:50:43;10.40;99.90
42841;DHT22;28491;46.898;7.660;2024-01-25T12:53:12;10.30;99.90
42841;DHT22;28491;46.898;7.660;2024-01-25T12:55:39;10.30;99.90
42841;DHT22;28491;46.898;7.660;2024-01-25T12:58:05;10.30;1.00
42841;DHT22;28491;46.898;7.660;2024-01-25T13:00:30;10.30;1.00
42841;DHT22;28491;46.898;7.660;2024-01-25T13:02:56;10.30;1.00
42841;DHT22;28491;46.898;7.660;2024-01-25T13:05:22;10.20;1.00
42841;DHT22;28491;46.898;7.660;2024-01-25T13:07:48;10.20;1.00
42841;DHT22;28491;46.898;7.660;2024-01-25T13:10:13;10.20;1.00
42841;DHT22;28491;46.898;7.660;2024-01-25T13:12:39;10.30;1.00
42841;DHT22;28491;46.898;7.660;2024-01-25T13:15:05;10.40;1.00
42841;DHT22;28491;46.898;7.660;2024-01-25T13:17:31;10.50;1.00
42841;DHT22;28491;46.898;7.660;2024-01-25T13:20:00;10.50;1.00
42841;DHT22;28491;46.898;7.660;2024-01-25T13:22:25;10.40;1.00
42841;DHT22;28491;46.898;7.660;2024-01-25T13:24:51;10.40;1.00
42841;DHT22;28491;46.898;7.660;2024-01-25T13:27:17;10.30;1.00
42841;DHT22;28491;46.898;7.660;2024-01-25T13:29:42;10.30;1.00
42841;DHT22;28491;46.898;7.660;2024-01-25T13:32:08;10.30;1.00
42841;DHT22;28491;46.898;7.660;2024-01-25T13:34:34;10.40;99.90
42841;DHT22;28491;46.898;7.660;2024-01-25T13:37:00;10.50;99.20
42841;DHT22;28491;46.898;7.660;2024-01-25T13:39:26;10.60;99.90
42841;DHT22;28491;46.898;7.660;2024-01-25T13:41:51;10.50;1.00
42841;DHT22;28491;46.898;7.660;2024-01-25T13:44:17;10.50;99.90
42841;DHT22;28491;46.898;7.660;2024-01-25T13:46:43;10.70;1.00
42841;DHT22;28491;46.898;7.660;2024-01-25T13:49:08;10.50;1.00
42841;DHT22;28491;46.898;7.660;2024-01-25T13:51:34;10.40;1.00
42841;DHT22;28491;46.898;7.660;2024-01-25T13:54:00;10.40;1.00
42841;DHT22;28491;46.898;7.660;2024-01-25T13:56:25;10.40;1.00
42841;DHT22;28491;46.898;7.660;2024-01-25T13:58:51;10.30;1.00
42841;DHT22;28491;46.898;7.660;2024-01-25T14:01:17;10.30;1.00
42841;DHT22;28491;46.898;7.660;2024-01-25T14:03:46;10.20;1.00
42841;DHT22;28491;46.898;7.660;2024-01-25T14:06:11;10.30;1.00
42841;DHT22;28491;46.898;7.660;2024-01-25T14:08:37;10.30;1.00
42841;DHT22;28491;46.898;7.660;2024-01-25T14:11:03;10.30;1.00
42841;DHT22;28491;46.898;7.660;2024-01-25T14:13:29;10.40;1.00
42841;DHT22;28491;46.898;7.660;2024-01-25T14:15:55;10.30;1.00
42841;DHT22;28491;46.898;7.660;2024-01-25T14:18:21;10.30;1.00
42841;DHT22;28491;46.898;7.660;2024-01-25T14:20:46;10.40;1.00
42841;DHT22;28491;46.898;7.660;2024-01-25T14:23:12;10.30;1.00
42841;DHT22;28491;46.898;7.660;2024-01-25T14:25:37;10.40;1.00
42841;DHT22;28491;46.898;7.660;2024-01-25T14:28:03;10.40;1.00
42841;DHT22;28491;46.898;7.660;2024-01-25T14:30:28;10.50;1.00
42841;DHT22;28491;46.898;7.660;2024-01-25T14:32:55;10.60;1.00
42841;DHT22;28491;46.898;7.660;2024-01-25T14:35:22;10.70;1.00
42841;DHT22;28491;46.898;7.660;2024-01-25T14:37:54;10.70;99.90
42841;DHT22;28491;46.898;7.660;2024-01-25T14:40:19;10.80;98.20
42841;DHT22;28491;46.898;7.660;2024-01-25T14:42:45;10.90;92.40
42841;DHT22;28491;46.898;7.660;2024-01-25T14:45:10;11.00;84.40
42841;DHT22;28491;46.898;7.660;2024-01-25T14:47:36;11.00;76.30
42841;DHT22;28491;46.898;7.660;2024-01-25T14:50:01;11.00;83.90
42841;DHT22;28491;46.898;7.660;2024-01-25T14:52:27;11.00;87.40
42841;DHT22;28491;46.898;7.660;2024-01-25T14:54:52;11.00;93.00
42841;DHT22;28491;46.898;7.660;2024-01-25T14:57:18;11.00;95.80
42841;DHT22;28491;46.898;7.660;2024-01-25T14:59:43;11.00;95.70
42841;DHT22;28491;46.898;7.660;2024-01-25T15:02:09;10.90;97.70
42841;DHT22;28491;46.898;7.660;2024-01-25T15:04:34;10.70;99.90
42841;DHT22;28491;46.898;7.660;2024-01-25T15:07:00;10.70;99.90
42841;DHT22;28491;46.898;7.660;2024-01-25T15:09:25;10.70;99.90
42841;DHT22;28491;46.898;7.660;2024-01-25T15:11:51;10.60;1.00
42841;DHT22;28491;46.898;7.660;2024-01-25T15:14:16;10.50;1.00
42841;DHT22;28491;46.898;7.660;2024-01-25T15:16:42;10.50;1.00
42841;DHT22;28491;46.898;7.660;2024-01-25T15:19:07;10.40;1.00
42841;DHT22;28491;46.898;7.660;2024-01-25T15:21:33;10.40;1.00
42841;DHT22;28491;46.898;7.660;2024-01-25T15:23:58;10.40;1.00
42841;DHT22;28491;46.898;7.660;2024-01-25T15:26:24;10.30;1.00
42841;DHT22;28491;46.898;7.660;2024-01-25T15:28:51;10.30;1.00
42841;DHT22;28491;46.898;7.660;2024-01-25T15:31:17;10.40;1.00
42841;DHT22;28491;46.898;7.660;2024-01-25T15:33:43;10.30;1.00
42841;DHT22;28491;46.898;7.660;2024-01-25T15:36:09;10.30;1.00
42841;DHT22;28491;46.898;7.660;2024-01-25T15:38:34;10.30;1.00
42841;DHT22;28491;46.898;7.660;2024-01-25T15:40:59;10.20;1.00
42841;DHT22;28491;46.898;7.660;2024-01-25T15:43:25;10.20;1.00